Glen Hope, PA (16645)

11:23 AM EST en Diciembre 18, 2014 (GMT -0500)
Tyrone | Change Station
CLOSE
Current Station
Estación meteorológica personal
Location: Tyrone, PA
Altura: 1138 ft
Estaciones meteorológicas cercanas

Alt 1138 ft 40.68 °N, 78.26 °W | Updated 5 minutes ago

Nublado
Nublado
30.0 ° F
Sensación térmica 30 ° F
N
1.0
Viento Variable Viento desde ONO
Gusts 12.0 mph

Hoy
Alta -- | Baja -- ° F
--% Posibilidad de precipitaciones
Ayer
Alta -- | Baja -- ° F
Precip. -- pul
7:33 AM 4:48 PM
Creciente menguante, 13% visible
Presión 30.14 pul
Visibilidad 10.0 Millas
Nubes Nublado 1200 ft
Vientos helados 30 ° F
Punto de rocío 25 ° F
Humedad 81%
Precipitaciones 0.00 pul
Espesor de la nieve No disponible.
UV 1 de una escala de 12
Polen .10 de una escala de 12
Calidad del aire No disponible.
Flu Activity No disponible.
METAR KFIG 181554Z AUTO 27008KT 10SM OVC012 M03/M05 A3009 RMK AO2 SLP207 T10281050

More Conditions Fewer Conditions

Presión 30.14 pul
Visibilidad 10.0 Millas
Nubes Nublado 1200 ft
Vientos helados 30 ° F
Punto de rocío 25 ° F
Humedad 81%
Precipitaciones 0.00 pul
Espesor de la nieve No disponible.
UV 1 de una escala de 12
Polen .10 de una escala de 12
Calidad del aire No disponible.
Flu Activity No disponible.
METAR KFIG 181554Z AUTO 27008KT 10SM OVC012 M03/M05 A3009 RMK AO2 SLP207 T10281050

More Conditions Fewer Conditions

10-Day Weather Forecast

Almanac

Astronomía

Dec. 18, 2014 Salida Puesta
Hora real
Crepúsculo civil
Crepúsculo náutico
Crepúsculo astronómico
Luna
Horas de luz
Horas de luz
Tomorrow will be .
, % of the Moon is Illuminated

Extremos de hoy

Máximos del estado Bajos del estado

Community

WunderPhotos

Upload Photos

1,778,955 ¡fotos cargadas!

WunderBlogs® & News

Nearby

Calidad del aire

  Calidad del aire Índice AQ Contaminante
Not available.

Grosos de nieve

Estación Profundido Altura

Actividad de terremotos

Ciudad Distance Mag. Tiempo y dato
Magnitud mínima muestra es 2,5.

Temperaturas de aguas costeras

Lugar Temperatura

Estaciones meteorológicas cercanas